createdAt,value
2022-07-29T00:02:02.980Z,16.10
2022-07-29T00:04:31.783Z,16.00
2022-07-29T00:07:00.508Z,16.00
2022-07-29T00:09:29.253Z,15.90
2022-07-29T00:12:01.221Z,15.80
2022-07-29T00:14:30.432Z,15.80
2022-07-29T00:16:59.121Z,15.80
2022-07-29T00:19:29.116Z,15.80
2022-07-29T00:21:57.726Z,15.80
2022-07-29T00:24:26.667Z,15.70
2022-07-29T00:26:57.332Z,15.70
2022-07-29T00:29:34.635Z,15.60
2022-07-29T00:32:04.088Z,15.60
2022-07-29T00:34:51.678Z,15.60
2022-07-29T00:37:20.426Z,15.50
2022-07-29T00:39:49.212Z,15.50
2022-07-29T00:42:18.389Z,15.50
2022-07-29T00:44:47.117Z,15.50
2022-07-29T00:47:15.738Z,15.50
2022-07-29T00:49:45.976Z,15.50
2022-07-29T00:52:16.833Z,15.40
2022-07-29T00:54:46.019Z,15.40
2022-07-29T00:57:15.005Z,15.40
2022-07-29T00:59:43.668Z,15.30
2022-07-29T01:02:12.474Z,15.30
2022-07-29T01:04:42.122Z,15.30
2022-07-29T01:07:12.922Z,15.30
2022-07-29T01:09:46.669Z,15.30
2022-07-29T01:12:19.681Z,15.20
2022-07-29T01:14:49.721Z,15.20
2022-07-29T01:17:23.059Z,15.20
2022-07-29T01:20:03.751Z,15.20
2022-07-29T01:22:48.623Z,15.20
2022-07-29T01:25:42.275Z,15.20
2022-07-29T01:28:40.421Z,15.20
2022-07-29T01:31:21.176Z,15.20
2022-07-29T01:34:00.235Z,15.20
2022-07-29T01:36:33.246Z,15.30
2022-07-29T01:39:10.770Z,15.20
2022-07-29T01:41:46.110Z,15.10
2022-07-29T01:44:21.937Z,15.10
2022-07-29T01:46:54.760Z,15.10
2022-07-29T01:49:27.461Z,15.10
2022-07-29T01:52:01.814Z,15.00
2022-07-29T01:54:36.752Z,15.00
2022-07-29T01:57:09.241Z,15.00
2022-07-29T01:59:40.639Z,15.00
2022-07-29T02:02:11.960Z,14.90
2022-07-29T02:04:43.164Z,15.00
2022-07-29T02:07:17.795Z,15.00
2022-07-29T02:09:48.509Z,15.00
2022-07-29T02:12:20.080Z,15.00
2022-07-29T02:14:55.982Z,15.00
2022-07-29T02:17:28.243Z,15.10
2022-07-29T02:20:01.942Z,15.10
2022-07-29T02:22:33.262Z,15.10
2022-07-29T02:25:03.738Z,15.10
2022-07-29T02:27:35.621Z,15.10
2022-07-29T02:30:08.126Z,15.20
2022-07-29T02:32:38.481Z,15.10
2022-07-29T02:35:10.181Z,15.20
2022-07-29T02:37:40.258Z,15.20
2022-07-29T02:40:13.183Z,15.20
2022-07-29T02:42:45.878Z,15.20
2022-07-29T02:45:15.930Z,15.30
2022-07-29T02:47:49.819Z,15.30
2022-07-29T02:50:23.308Z,15.30
2022-07-29T02:52:56.850Z,15.30
2022-07-29T02:55:30.728Z,15.40
2022-07-29T02:58:02.876Z,15.40
2022-07-29T03:00:37.228Z,15.40
2022-07-29T03:03:09.662Z,15.40
2022-07-29T03:05:39.101Z,15.40
2022-07-29T03:08:11.342Z,15.40
2022-07-29T03:10:41.641Z,15.50
2022-07-29T03:13:11.530Z,15.40
2022-07-29T03:15:42.052Z,15.30
2022-07-29T03:18:11.379Z,15.40
2022-07-29T03:20:41.502Z,15.30
2022-07-29T03:23:10.978Z,15.30
2022-07-29T03:25:39.845Z,15.20
2022-07-29T03:28:08.442Z,15.30
2022-07-29T03:30:37.110Z,15.20
2022-07-29T03:33:13.396Z,15.20
2022-07-29T03:35:42.586Z,15.20
2022-07-29T03:38:11.156Z,15.20
2022-07-29T03:40:46.944Z,15.30
2022-07-29T03:43:17.647Z,15.30
2022-07-29T03:45:52.134Z,15.30
2022-07-29T03:48:24.284Z,15.30
2022-07-29T03:50:53.557Z,15.30
2022-07-29T03:53:22.249Z,15.30
2022-07-29T03:55:55.141Z,15.20
2022-07-29T03:58:25.395Z,15.10
2022-07-29T04:00:56.094Z,15.00
2022-07-29T04:03:26.183Z,15.00
2022-07-29T04:06:02.703Z,15.00
2022-07-29T04:08:31.488Z,14.90
2022-07-29T04:11:00.059Z,14.80
2022-07-29T04:13:28.671Z,14.80
2022-07-29T04:15:57.662Z,14.70
2022-07-29T04:18:27.787Z,14.60
2022-07-29T04:20:56.795Z,14.60
2022-07-29T04:23:25.636Z,14.60
2022-07-29T04:25:54.518Z,14.60
2022-07-29T04:28:23.145Z,14.50
2022-07-29T04:30:51.817Z,14.50
2022-07-29T04:33:20.414Z,14.50
2022-07-29T04:35:52.524Z,14.50
2022-07-29T04:38:23.901Z,14.50
2022-07-29T04:40:52.530Z,14.50
2022-07-29T04:43:23.201Z,14.50
2022-07-29T04:45:52.404Z,14.40
2022-07-29T04:48:25.330Z,14.30
2022-07-29T04:50:58.910Z,14.20
2022-07-29T04:53:27.802Z,14.20
2022-07-29T04:55:56.833Z,14.30
2022-07-29T04:58:25.844Z,14.30
2022-07-29T05:00:54.560Z,14.20
2022-07-29T05:03:23.211Z,14.30
2022-07-29T05:05:51.760Z,14.20
2022-07-29T05:08:21.877Z,14.20
2022-07-29T05:10:50.492Z,14.20
2022-07-29T05:13:19.043Z,14.20
2022-07-29T05:15:47.781Z,14.20
2022-07-29T05:18:16.442Z,14.30
2022-07-29T05:20:45.039Z,14.30
2022-07-29T05:23:15.587Z,14.30
2022-07-29T05:25:45.850Z,14.30
2022-07-29T05:28:14.842Z,14.30
2022-07-29T05:30:45.458Z,14.30
2022-07-29T05:33:36.228Z,14.30
2022-07-29T05:36:02.691Z,14.50
2022-07-29T05:38:31.564Z,14.50
2022-07-29T05:41:10.223Z,14.50
2022-07-29T05:43:39.003Z,14.50
2022-07-29T05:46:07.575Z,14.50
2022-07-29T05:48:36.699Z,14.50
2022-07-29T05:51:05.975Z,14.60
2022-07-29T05:53:34.573Z,14.70
2022-07-29T05:56:06.842Z,14.90
2022-07-29T05:58:37.193Z,14.90
2022-07-29T06:01:05.831Z,14.90
2022-07-29T06:03:35.663Z,15.00
2022-07-29T06:06:04.199Z,15.10
2022-07-29T06:08:34.653Z,15.30
2022-07-29T06:11:03.466Z,15.30
2022-07-29T06:13:32.581Z,15.20
2022-07-29T06:16:02.665Z,15.20
2022-07-29T06:18:31.557Z,15.20
2022-07-29T06:21:00.570Z,15.30
2022-07-29T06:23:29.524Z,15.30
2022-07-29T06:25:58.171Z,15.30
2022-07-29T06:28:27.188Z,15.30
2022-07-29T06:30:56.034Z,15.30
2022-07-29T06:33:26.030Z,15.30
2022-07-29T06:35:55.092Z,15.30
2022-07-29T06:38:33.779Z,15.40
2022-07-29T06:41:04.832Z,15.50
2022-07-29T06:43:52.166Z,15.60
2022-07-29T06:46:24.397Z,15.70
2022-07-29T06:48:54.635Z,15.90
2022-07-29T06:51:24.315Z,16.00
2022-07-29T06:54:00.514Z,16.00
2022-07-29T06:56:32.544Z,16.00
2022-07-29T06:59:09.096Z,16.00
2022-07-29T07:01:39.227Z,16.00
2022-07-29T07:04:10.318Z,15.80
2022-07-29T07:06:39.125Z,15.90
2022-07-29T07:09:07.764Z,15.90
2022-07-29T07:11:36.667Z,16.10
2022-07-29T07:14:05.681Z,16.20
2022-07-29T07:16:34.664Z,16.40
2022-07-29T07:19:03.712Z,16.40
2022-07-29T07:21:35.060Z,16.40
2022-07-29T07:24:04.894Z,16.40
2022-07-29T07:26:33.457Z,16.40
2022-07-29T07:29:02.424Z,16.40
2022-07-29T07:31:31.171Z,16.40
2022-07-29T07:34:00.057Z,16.60
2022-07-29T07:36:28.664Z,16.70
2022-07-29T07:38:58.831Z,16.70
2022-07-29T07:41:27.600Z,16.60
2022-07-29T07:44:01.256Z,16.70
2022-07-29T07:46:29.908Z,16.70
2022-07-29T07:48:58.495Z,16.70
2022-07-29T07:51:27.971Z,16.90
2022-07-29T07:53:57.931Z,17.00
2022-07-29T07:56:26.501Z,17.20
2022-07-29T07:58:55.693Z,17.30
2022-07-29T08:01:24.344Z,17.30
2022-07-29T08:03:53.011Z,17.50
2022-07-29T08:06:21.638Z,17.70
2022-07-29T08:08:51.893Z,17.80
2022-07-29T08:11:22.642Z,17.80
2022-07-29T08:13:51.218Z,17.80
2022-07-29T08:16:20.040Z,17.80
2022-07-29T08:18:49.073Z,17.80
2022-07-29T08:21:17.760Z,17.80
2022-07-29T08:23:57.614Z,17.90
2022-07-29T08:26:28.825Z,17.90
2022-07-29T08:28:57.524Z,18.00
2022-07-29T08:31:26.132Z,18.10
2022-07-29T08:33:54.889Z,18.10
2022-07-29T08:36:23.541Z,18.00
2022-07-29T08:38:52.205Z,18.10
2022-07-29T08:41:21.351Z,18.10
2022-07-29T08:43:52.025Z,18.20
2022-07-29T08:46:21.527Z,18.40
2022-07-29T08:48:50.835Z,18.40
2022-07-29T08:51:21.546Z,18.30
2022-07-29T08:53:51.803Z,18.40
2022-07-29T08:56:22.493Z,18.40
2022-07-29T08:58:52.766Z,18.50
2022-07-29T09:01:35.972Z,18.60
2022-07-29T09:04:14.010Z,18.60
2022-07-29T09:06:46.950Z,18.70
2022-07-29T09:09:15.812Z,18.80
2022-07-29T09:11:44.918Z,18.90
2022-07-29T09:14:16.389Z,19.10
2022-07-29T09:16:54.259Z,19.30
2022-07-29T09:19:26.034Z,19.40
2022-07-29T09:22:03.073Z,19.40
2022-07-29T09:24:41.724Z,19.40
2022-07-29T09:27:21.750Z,19.60
2022-07-29T09:29:58.380Z,19.70
2022-07-29T09:32:28.462Z,19.80
2022-07-29T09:35:23.062Z,19.70
2022-07-29T09:37:52.476Z,19.70
2022-07-29T09:40:23.360Z,19.80
2022-07-29T09:42:53.899Z,19.90
2022-07-29T09:45:32.338Z,20.00
2022-07-29T09:48:04.356Z,20.10
2022-07-29T09:50:40.108Z,20.10
2022-07-29T09:53:10.474Z,20.20
2022-07-29T09:55:52.094Z,20.40
2022-07-29T09:58:22.652Z,20.40
2022-07-29T10:00:53.883Z,20.60
2022-07-29T10:03:22.865Z,20.80
2022-07-29T10:06:07.614Z,20.60
2022-07-29T10:08:37.501Z,20.60
2022-07-29T10:11:16.752Z,20.50
2022-07-29T10:13:47.173Z,20.50
2022-07-29T10:16:18.874Z,20.40
2022-07-29T10:18:48.334Z,20.50
2022-07-29T10:21:35.162Z,20.50
2022-07-29T10:24:06.084Z,20.50
2022-07-29T10:26:35.292Z,20.50
2022-07-29T10:29:04.438Z,20.50
2022-07-29T10:31:44.158Z,20.60
2022-07-29T10:34:22.935Z,20.50
2022-07-29T10:36:58.920Z,20.50
2022-07-29T10:39:44.507Z,20.50
2022-07-29T10:42:20.389Z,20.50
2022-07-29T10:45:03.023Z,20.70
2022-07-29T10:47:35.346Z,20.70
2022-07-29T10:50:06.315Z,20.80
2022-07-29T10:52:59.512Z,21.10
2022-07-29T10:55:37.516Z,21.50
2022-07-29T10:58:18.100Z,21.70
2022-07-29T11:00:49.478Z,22.00
2022-07-29T11:03:49.804Z,22.30
2022-07-29T11:06:28.025Z,22.50
2022-07-29T11:09:20.317Z,22.70
2022-07-29T11:11:54.915Z,22.60
2022-07-29T11:15:00.314Z,22.60
2022-07-29T11:17:47.160Z,22.50
2022-07-29T11:20:38.940Z,22.60
2022-07-29T11:23:27.462Z,22.50
2022-07-29T11:26:21.128Z,22.60
2022-07-29T11:29:01.677Z,22.70
2022-07-29T11:31:39.976Z,22.50
2022-07-29T11:34:22.673Z,22.60
2022-07-29T11:37:18.419Z,22.60
2022-07-29T11:40:09.955Z,22.60
2022-07-29T11:42:57.115Z,22.80
2022-07-29T11:45:43.218Z,23.30
2022-07-29T11:48:29.167Z,23.00
2022-07-29T11:51:01.093Z,23.00
2022-07-29T11:53:32.803Z,22.60
2022-07-29T11:56:03.432Z,22.60
2022-07-29T11:58:33.730Z,22.90
2022-07-29T12:01:04.748Z,23.00
2022-07-29T12:06:24.196Z,23.00
2022-07-29T12:08:54.519Z,23.30
2022-07-29T12:11:23.794Z,23.70
2022-07-29T12:13:53.272Z,23.90
2022-07-29T12:16:25.819Z,23.90
2022-07-29T12:19:02.957Z,23.70
2022-07-29T12:21:45.742Z,23.80
2022-07-29T12:24:27.065Z,24.20
2022-07-29T12:26:57.606Z,24.40
2022-07-29T12:29:35.237Z,24.40
2022-07-29T12:32:14.721Z,24.40
2022-07-29T12:34:48.433Z,24.70
2022-07-29T12:37:17.223Z,24.90
2022-07-29T12:39:47.499Z,25.20
2022-07-29T12:42:18.694Z,25.10
2022-07-29T12:44:49.103Z,25.40
2022-07-29T12:47:19.179Z,25.80
2022-07-29T12:49:49.581Z,26.00
2022-07-29T12:52:32.610Z,26.40
2022-07-29T12:55:03.023Z,26.40
2022-07-29T12:57:32.976Z,25.90
2022-07-29T13:00:08.683Z,26.10
2022-07-29T13:02:37.764Z,25.80
2022-07-29T13:05:09.163Z,25.80
2022-07-29T13:07:55.221Z,25.70
2022-07-29T13:10:27.613Z,25.80
2022-07-29T13:13:10.713Z,26.20
2022-07-29T13:15:40.359Z,26.80
2022-07-29T13:18:29.323Z,26.90
2022-07-29T13:20:58.547Z,26.60
2022-07-29T13:23:27.369Z,26.60
2022-07-29T13:26:07.778Z,26.50
2022-07-29T13:28:36.619Z,26.70
2022-07-29T13:31:06.065Z,27.20
2022-07-29T13:33:34.875Z,27.20
2022-07-29T13:36:03.498Z,26.80
2022-07-29T13:38:32.173Z,26.90
2022-07-29T13:41:03.143Z,26.90
2022-07-29T13:43:31.911Z,27.00
2022-07-29T13:46:00.585Z,26.70
2022-07-29T13:48:29.302Z,26.50
2022-07-29T13:50:58.927Z,26.50
2022-07-29T13:53:28.836Z,26.60
2022-07-29T13:55:57.803Z,26.30
2022-07-29T13:58:27.833Z,26.60
2022-07-29T14:00:57.930Z,26.70
2022-07-29T14:03:27.050Z,26.80
2022-07-29T14:05:57.154Z,26.50
2022-07-29T14:08:25.893Z,26.50
2022-07-29T14:10:54.798Z,26.50
2022-07-29T14:13:25.618Z,26.80
2022-07-29T14:15:57.128Z,27.00
2022-07-29T14:18:25.847Z,27.10
2022-07-29T14:20:54.626Z,27.10
2022-07-29T14:23:23.354Z,27.20
2022-07-29T14:25:51.952Z,27.80
2022-07-29T14:28:22.096Z,28.10
2022-07-29T14:30:50.729Z,28.30
2022-07-29T14:33:20.747Z,28.40
2022-07-29T14:35:49.393Z,28.40
2022-07-29T14:38:18.019Z,28.60
2022-07-29T14:40:47.557Z,28.70
2022-07-29T14:43:19.733Z,28.80
2022-07-29T14:45:50.616Z,28.60
2022-07-29T14:48:20.747Z,28.90
2022-07-29T14:50:49.300Z,29.00
2022-07-29T14:53:17.893Z,28.80
2022-07-29T14:55:46.719Z,28.90
2022-07-29T14:58:16.701Z,29.10
2022-07-29T15:00:45.876Z,28.80
2022-07-29T15:03:23.930Z,29.00
2022-07-29T15:05:54.539Z,29.30
2022-07-29T15:08:23.313Z,29.80
2022-07-29T15:10:51.930Z,30.30
2022-07-29T15:13:20.570Z,29.70
2022-07-29T15:15:57.046Z,29.60
2022-07-29T15:18:28.660Z,29.60
2022-07-29T15:20:58.928Z,29.30
2022-07-29T15:23:27.583Z,29.40
2022-07-29T15:25:56.218Z,29.30
2022-07-29T15:28:24.924Z,29.30
2022-07-29T15:30:53.918Z,29.50
2022-07-29T15:33:22.542Z,29.50
2022-07-29T15:35:51.280Z,29.60
2022-07-29T15:38:28.578Z,29.30
2022-07-29T15:40:57.950Z,29.20
2022-07-29T15:43:27.199Z,29.20
2022-07-29T15:46:13.332Z,29.10
2022-07-29T15:48:42.037Z,29.20
2022-07-29T15:51:10.651Z,29.40
2022-07-29T15:53:40.640Z,29.90
2022-07-29T15:56:09.270Z,30.00
2022-07-29T15:58:37.844Z,29.80
2022-07-29T16:01:06.688Z,29.30
2022-07-29T16:03:35.379Z,29.10
2022-07-29T16:06:04.220Z,29.00
2022-07-29T16:08:32.819Z,29.20
2022-07-29T16:11:02.765Z,29.60
2022-07-29T16:13:31.384Z,29.50
2022-07-29T16:16:01.927Z,29.20
2022-07-29T16:18:31.802Z,28.80
2022-07-29T16:21:00.839Z,28.60
2022-07-29T16:23:29.523Z,28.50
2022-07-29T16:26:00.117Z,28.80
2022-07-29T16:28:31.450Z,28.90
2022-07-29T16:31:00.205Z,29.30
2022-07-29T16:33:55.118Z,28.90
2022-07-29T16:36:18.537Z,28.70
2022-07-29T16:38:47.651Z,28.40
2022-07-29T16:41:16.493Z,27.90
2022-07-29T16:43:46.786Z,27.70
2022-07-29T16:46:18.471Z,27.40
2022-07-29T16:48:47.898Z,27.30
2022-07-29T16:51:17.298Z,26.90
2022-07-29T16:53:45.975Z,26.90
2022-07-29T16:56:18.366Z,26.60
2022-07-29T16:58:48.431Z,26.50
2022-07-29T17:01:17.922Z,26.40
2022-07-29T17:04:04.742Z,26.10
2022-07-29T17:06:35.092Z,26.10
2022-07-29T17:09:04.804Z,25.90
2022-07-29T17:11:52.554Z,25.80
2022-07-29T17:14:25.800Z,25.80
2022-07-29T17:17:01.167Z,25.90
2022-07-29T17:19:31.785Z,25.70
2022-07-29T17:22:09.498Z,25.70
2022-07-29T17:24:41.103Z,25.70
2022-07-29T17:27:10.429Z,25.80
2022-07-29T17:29:40.753Z,25.70
2022-07-29T17:32:10.334Z,25.70
2022-07-29T17:34:39.618Z,25.60
2022-07-29T17:37:09.551Z,25.50
2022-07-29T17:39:40.767Z,25.40
2022-07-29T17:42:10.405Z,25.40
2022-07-29T17:44:40.919Z,25.40
2022-07-29T17:47:16.148Z,25.20
2022-07-29T17:49:45.908Z,25.10
2022-07-29T17:52:15.895Z,25.00
2022-07-29T17:54:44.515Z,25.00
2022-07-29T17:57:13.272Z,24.90
2022-07-29T17:59:43.674Z,25.00
2022-07-29T18:02:14.478Z,24.80
2022-07-29T18:04:43.225Z,24.90
2022-07-29T18:07:11.934Z,24.90
2022-07-29T18:09:40.562Z,24.80
2022-07-29T18:12:10.287Z,24.80
2022-07-29T18:14:39.445Z,24.60
2022-07-29T18:17:09.465Z,24.50
2022-07-29T18:19:38.063Z,24.40
2022-07-29T18:22:07.509Z,24.20
2022-07-29T18:24:36.136Z,24.20
2022-07-29T18:27:04.777Z,24.10
2022-07-29T18:29:33.992Z,23.90
2022-07-29T18:32:02.752Z,23.80
2022-07-29T18:34:33.212Z,23.70
2022-07-29T18:37:02.015Z,23.60
2022-07-29T18:39:30.903Z,23.50
2022-07-29T18:41:59.625Z,23.30
2022-07-29T18:44:28.446Z,23.30
2022-07-29T18:47:00.190Z,23.40
2022-07-29T18:49:29.417Z,23.40
2022-07-29T18:51:59.641Z,23.30
2022-07-29T18:54:28.330Z,23.10
2022-07-29T18:56:57.232Z,23.00
2022-07-29T18:59:26.141Z,23.00
2022-07-29T19:01:54.851Z,22.90
2022-07-29T19:04:23.801Z,22.80
2022-07-29T19:06:52.456Z,22.80
2022-07-29T19:09:22.571Z,22.80
2022-07-29T19:11:55.582Z,22.70
2022-07-29T19:14:24.928Z,22.60
2022-07-29T19:16:53.636Z,22.60
2022-07-29T19:19:22.275Z,22.50
2022-07-29T19:21:51.191Z,22.50
2022-07-29T19:24:19.808Z,22.40
2022-07-29T19:26:49.927Z,22.30
2022-07-29T19:29:18.751Z,22.20
2022-07-29T19:31:47.557Z,22.00
2022-07-29T19:34:16.109Z,21.90
2022-07-29T19:36:44.780Z,21.90
2022-07-29T19:39:15.476Z,21.80
2022-07-29T19:41:44.202Z,21.70
2022-07-29T19:44:15.511Z,21.60
2022-07-29T19:46:45.428Z,21.50
2022-07-29T19:49:14.639Z,21.50
2022-07-29T19:51:43.387Z,21.30
2022-07-29T19:54:12.039Z,21.20
2022-07-29T19:56:42.227Z,21.20
2022-07-29T19:59:11.064Z,21.00
2022-07-29T20:01:42.340Z,21.00
2022-07-29T20:04:10.963Z,20.90
2022-07-29T20:06:39.513Z,20.70
2022-07-29T20:09:08.104Z,20.60
2022-07-29T20:11:45.737Z,20.50
2022-07-29T20:14:14.304Z,20.40
2022-07-29T20:16:44.304Z,20.40
2022-07-29T20:19:13.003Z,20.30
2022-07-29T20:21:41.668Z,20.30
2022-07-29T20:24:10.593Z,20.20
2022-07-29T20:26:39.467Z,20.10
2022-07-29T20:29:08.069Z,20.00
2022-07-29T20:31:37.060Z,19.90
2022-07-29T20:34:07.177Z,19.80
2022-07-29T20:36:35.741Z,19.70
2022-07-29T20:39:04.402Z,19.60
2022-07-29T20:41:34.190Z,19.70
2022-07-29T20:44:03.178Z,19.60
2022-07-29T20:46:31.838Z,19.50
2022-07-29T20:49:00.609Z,19.40
2022-07-29T20:51:30.757Z,19.40
2022-07-29T20:54:02.722Z,19.30
2022-07-29T20:56:31.275Z,19.30
2022-07-29T20:58:59.898Z,19.30
2022-07-29T21:01:28.589Z,19.30
2022-07-29T21:03:57.457Z,19.30
2022-07-29T21:06:26.209Z,19.20
2022-07-29T21:08:57.958Z,19.20
2022-07-29T21:11:43.228Z,19.20
2022-07-29T21:14:21.837Z,19.20
2022-07-29T21:16:50.699Z,19.10
2022-07-29T21:19:19.274Z,19.10
2022-07-29T21:21:47.914Z,19.10
2022-07-29T21:24:17.948Z,19.10
2022-07-29T21:26:54.589Z,19.00
2022-07-29T21:29:27.230Z,19.00
2022-07-29T21:31:55.926Z,18.90
2022-07-29T21:34:24.698Z,18.80
2022-07-29T21:36:53.326Z,18.80
2022-07-29T21:39:23.404Z,18.70
2022-07-29T21:41:52.057Z,18.70
2022-07-29T21:44:21.883Z,18.70
2022-07-29T21:46:50.679Z,18.60
2022-07-29T21:49:20.336Z,18.60
2022-07-29T21:51:49.088Z,18.60
2022-07-29T21:54:19.443Z,18.60
2022-07-29T21:56:51.452Z,18.50
2022-07-29T21:59:20.030Z,18.50
2022-07-29T22:01:48.719Z,18.40
2022-07-29T22:04:17.598Z,18.40
2022-07-29T22:06:46.273Z,18.40
2022-07-29T22:09:14.805Z,18.30
2022-07-29T22:11:43.662Z,18.30
2022-07-29T22:14:15.009Z,18.20
2022-07-29T22:16:43.633Z,18.20
2022-07-29T22:19:12.337Z,18.20
2022-07-29T22:21:41.903Z,18.10
2022-07-29T22:24:11.272Z,18.20
2022-07-29T22:26:39.937Z,18.20
2022-07-29T22:29:08.505Z,18.20
2022-07-29T22:31:38.667Z,18.20
2022-07-29T22:34:12.634Z,18.10
2022-07-29T22:36:41.613Z,18.10
2022-07-29T22:39:10.247Z,18.00
2022-07-29T22:41:38.793Z,18.00
2022-07-29T22:44:07.372Z,17.90
2022-07-29T22:46:36.103Z,17.90
2022-07-29T22:49:06.361Z,17.80
2022-07-29T22:51:35.632Z,17.80
2022-07-29T22:54:05.243Z,17.80
2022-07-29T22:56:33.875Z,17.80
2022-07-29T22:59:02.479Z,17.80
2022-07-29T23:01:35.800Z,17.70
2022-07-29T23:04:08.377Z,17.70
2022-07-29T23:06:37.068Z,17.70
2022-07-29T23:09:06.308Z,17.70
2022-07-29T23:11:34.934Z,17.60
2022-07-29T23:14:03.586Z,17.60
2022-07-29T23:16:32.221Z,17.50
2022-07-29T23:19:01.585Z,17.50
2022-07-29T23:21:31.693Z,17.50
2022-07-29T23:24:00.343Z,17.40
2022-07-29T23:26:29.117Z,17.40
2022-07-29T23:28:57.866Z,17.40
2022-07-29T23:31:26.381Z,17.40
2022-07-29T23:33:55.045Z,17.40
2022-07-29T23:36:23.566Z,17.30
2022-07-29T23:38:54.988Z,17.30
2022-07-29T23:41:23.814Z,17.30
2022-07-29T23:43:52.394Z,17.30
2022-07-29T23:46:23.845Z,17.30
2022-07-29T23:48:52.814Z,17.30
2022-07-29T23:51:21.493Z,17.20
2022-07-29T23:53:54.031Z,17.20
2022-07-29T23:56:24.804Z,17.20
2022-07-29T23:58:54.381Z,17.10
